Time;durP1;ratioP1;P1;durP2;ratioP2;P2;SDS_P1;SDS_P2;PMS_P1;PMS_P2;Temp;Humidity;BMP_temperature;BMP_pressure;BME280_temperature;BME280_humidity;BME280_pressure;Samples;Min_cycle;Max_cycle;Signal;HPM_P1;HPM_P2
2021/11/10 00:00:39;;;;;;;7.47;4.50;;;;;;;14.77;68.69;103149.09;4908268;28;102287;-50
2021/11/10 00:03:05;;;;;;;5.70;4.40;;;;;;;14.77;68.86;103158.16;4899538;28;103961;-50
2021/11/10 00:05:32;;;;;;;5.88;4.60;;;;;;;14.77;68.50;103152.69;4899172;28;102192;-50
2021/11/10 00:08:01;;;;;;;6.38;4.85;;;;;;;14.78;68.75;103156.25;4911637;28;102220;-50
2021/11/10 00:10:27;;;;;;;6.43;5.20;;;;;;;14.76;68.81;103155.66;4895869;28;102347;-50
2021/11/10 00:13:36;;;;;;;6.72;4.65;;;;;;;14.77;68.82;103154.59;4899240;28;104048;-50
2021/11/10 00:15:44;;;;;;;5.65;4.32;;;;;;;14.77;68.77;103155.41;4897779;28;102169;-50
2021/11/10 00:18:10;;;;;;;5.75;4.72;;;;;;;14.77;68.65;103162.81;4908741;28;102573;-50
2021/11/10 00:20:37;;;;;;;6.97;4.95;;;;;;;14.77;68.52;103149.09;4905319;28;102235;-50
2021/11/10 00:23:05;;;;;;;5.15;4.13;;;;;;;14.77;68.51;103152.69;4901362;28;104129;-50
2021/11/10 00:25:32;;;;;;;5.83;4.50;;;;;;;14.78;68.79;103159.00;4898983;28;102257;-50
2021/11/10 00:27:59;;;;;;;5.90;4.32;;;;;;;14.77;68.58;103146.38;4905776;28;102177;-50
2021/11/10 00:30:26;;;;;;;5.05;3.88;;;;;;;14.77;68.60;103157.31;4907814;28;102193;-50
2021/11/10 00:32:52;;;;;;;6.70;4.35;;;;;;;14.76;68.79;103156.50;4895045;28;104641;-50
2021/11/10 00:35:20;;;;;;;5.93;4.40;;;;;;;14.75;68.79;103154.84;4904061;28;102035;-50
2021/11/10 00:37:47;;;;;;;6.25;4.10;;;;;;;14.76;68.63;103156.50;4898787;28;102241;-50
2021/11/10 00:40:15;;;;;;;5.70;4.10;;;;;;;14.76;68.61;103161.16;4898566;28;102335;-50
2021/11/10 00:42:41;;;;;;;6.13;4.28;;;;;;;14.76;68.71;103153.75;4903337;28;105639;-50
2021/11/10 00:45:10;;;;;;;7.28;4.07;;;;;;;14.75;68.63;103156.72;4901124;28;102226;-50
2021/11/10 00:47:37;;;;;;;4.55;3.72;;;;;;;14.77;68.51;103151.84;4906118;28;102506;-50
2021/11/10 00:50:04;;;;;;;7.20;4.47;;;;;;;14.76;68.76;103155.66;4898507;28;102500;-50
2021/11/10 00:52:31;;;;;;;5.95;4.10;;;;;;;14.76;68.75;103150.19;4902026;28;103741;-49
2021/11/10 00:54:57;;;;;;;5.47;3.75;;;;;;;14.75;68.44;103151.25;4889857;28;102113;-50
2021/11/10 00:57:25;;;;;;;4.78;3.80;;;;;;;14.76;68.55;103155.66;4899746;28;102136;-50
2021/11/10 00:59:52;;;;;;;3.85;3.35;;;;;;;14.75;68.61;103153.97;4899472;28;102292;-49
2021/11/10 01:02:18;;;;;;;4.32;3.72;;;;;;;14.75;68.79;103159.47;4893093;28;103739;-50
2021/11/10 01:04:45;;;;;;;4.30;3.60;;;;;;;14.76;68.54;103166.63;4899565;28;102126;-50
2021/11/10 01:07:12;;;;;;;9.05;4.25;;;;;;;14.76;68.46;103167.47;4902137;28;102022;-50
2021/11/10 01:09:41;;;;;;;4.25;3.35;;;;;;;14.76;68.55;103172.13;4897207;28;103587;-50
2021/11/10 01:12:09;;;;;;;5.05;3.67;;;;;;;14.76;68.59;103183.09;4900271;28;103666;-49
2021/11/10 01:14:43;;;;;;;5.38;3.65;;;;;;;14.75;68.83;103181.38;4892777;28;102501;-50
2021/11/10 01:17:09;;;;;;;4.65;3.53;;;;;;;14.75;68.85;103192.34;4897352;28;102241;-50
2021/11/10 01:19:37;;;;;;;4.32;3.72;;;;;;;14.74;68.81;103186.03;4902696;28;102506;-50
2021/11/10 01:22:03;;;;;;;4.28;3.10;;;;;;;14.74;68.91;103190.69;4906793;28;103884;-50
2021/11/10 01:24:30;;;;;;;4.00;3.40;;;;;;;14.73;68.93;103189.03;4896376;28;102339;-49
2021/11/10 01:26:56;;;;;;;4.70;3.53;;;;;;;14.73;68.42;103200.84;4907433;28;102167;-50
2021/11/10 01:29:23;;;;;;;4.40;3.40;;;;;;;14.72;68.96;103201.91;4900573;28;102526;-50
2021/11/10 01:31:51;;;;;;;5.97;3.88;;;;;;;14.73;68.84;103200.84;4902081;28;103942;-50
2021/11/10 01:34:17;;;;;;;5.22;3.67;;;;;;;14.73;68.85;103208.22;4905004;28;102400;-50
2021/11/10 01:36:47;;;;;;;5.28;3.50;;;;;;;14.73;68.78;103210.97;4898441;28;102075;-50
2021/11/10 01:39:13;;;;;;;3.67;3.28;;;;;;;14.72;68.60;103218.34;4910928;28;102675;-50
2021/11/10 01:41:43;;;;;;;4.30;3.63;;;;;;;14.72;68.79;103231.22;4899867;28;103323;-50
2021/11/10 01:44:14;;;;;;;4.85;3.53;;;;;;;14.72;68.63;103228.50;4884631;28;101914;-50
2021/11/10 01:46:41;;;;;;;4.30;3.50;;;;;;;14.72;68.76;103225.75;4885165;28;102980;-50
2021/11/10 01:49:08;;;;;;;4.00;3.20;;;;;;;14.71;68.58;103232.28;4886277;28;102238;-50
2021/11/10 01:51:41;;;;;;;3.83;3.15;;;;;;;14.71;68.41;103229.53;4883019;28;104104;-50
2021/11/10 01:54:11;;;;;;;3.80;3.30;;;;;;;14.70;68.82;103233.38;4896070;28;102269;-50
2021/11/10 01:56:38;;;;;;;;;;;;;;;14.72;68.43;103239.47;4890581;28;102381;-50
2021/11/10 01:59:05;;;;;;;4.38;3.35;;;;;;;14.71;68.54;103229.53;4886395;28;102127;-50
2021/11/10 02:01:41;;;;;;;4.07;3.35;;;;;;;14.70;68.64;103244.31;4889630;28;103925;-50
2021/11/10 02:04:10;;;;;;;4.05;3.15;;;;;;;14.70;68.89;103244.31;4877176;28;102268;-50
2021/11/10 02:06:36;;;;;;;4.60;3.40;;;;;;;14.70;68.59;103244.31;4876513;28;102216;-49
2021/11/10 02:09:04;;;;;;;3.65;3.25;;;;;;;14.70;68.83;103244.31;4880458;28;102002;-50
2021/11/10 02:11:32;;;;;;;4.07;2.95;;;;;;;14.70;68.60;103249.81;4880971;28;104118;-50
2021/11/10 02:14:00;;;;;;;4.80;3.25;;;;;;;14.70;68.55;103249.81;4880354;28;102225;-50
2021/11/10 02:16:27;;;;;;;3.65;3.17;;;;;;;14.70;68.70;103258.03;4875005;28;102173;-50
2021/11/10 02:18:54;;;;;;;3.65;2.88;;;;;;;14.69;68.90;103253.63;4881588;28;102947;-50
2021/11/10 02:21:22;;;;;;;3.58;3.20;;;;;;;14.68;68.56;103252.81;4881624;28;104212;-50
2021/11/10 02:23:49;;;;;;;3.72;3.15;;;;;;;14.69;68.66;103264.59;4881875;28;102156;-49
2021/11/10 02:26:18;;;;;;;5.07;3.40;;;;;;;14.68;68.80;103257.41;4886113;28;102166;-50
2021/11/10 02:28:44;;;;;;;3.88;3.30;;;;;;;14.67;68.49;103256.59;4880681;28;102689;-50
2021/11/10 02:31:11;;;;;;;4.10;3.03;;;;;;;14.68;68.56;103268.38;4878892;28;103971;-50
2021/11/10 02:33:37;;;;;;;4.43;3.63;;;;;;;14.68;68.78;103260.16;4880075;28;102661;-50
2021/11/10 02:36:06;;;;;;;4.13;3.22;;;;;;;14.67;68.53;103264.81;4880255;28;102369;-50
2021/11/10 02:38:34;;;;;;;;;;;;;;;14.69;68.49;103264.59;4888787;28;102332;-50
2021/11/10 02:41:02;;;;;;;3.63;2.97;;;;;;;14.68;68.36;103269.25;4882177;28;104139;-50
2021/11/10 02:43:29;;;;;;;4.65;3.28;;;;;;;14.66;68.47;103272.22;4890702;28;102204;-50
2021/11/10 02:45:59;;;;;;;4.35;3.20;;;;;;;14.68;68.73;103268.38;4901850;28;102102;-50
2021/11/10 02:48:25;;;;;;;4.22;3.53;;;;;;;14.67;68.70;103273.03;4892501;28;102991;-51
2021/11/10 02:50:51;;;;;;;3.70;3.20;;;;;;;14.67;68.74;103270.28;4901053;28;104085;-50
2021/11/10 02:53:18;;;;;;;3.25;2.90;;;;;;;14.68;68.70;103280.22;4900245;28;102356;-50
2021/11/10 02:55:46;;;;;;;3.83;3.22;;;;;;;14.68;68.43;103280.22;4906982;28;102399;-50
2021/11/10 02:58:14;;;;;;;3.97;3.17;;;;;;;14.66;68.65;103280.44;4900546;28;103095;-50
2021/11/10 03:00:41;;;;;;;3.53;3.17;;;;;;;14.66;68.71;103288.66;4899588;28;103834;-50
2021/11/10 03:03:07;;;;;;;4.15;3.45;;;;;;;14.67;68.50;103289.47;4899281;28;102147;-50
2021/11/10 03:05:34;;;;;;;3.63;3.22;;;;;;;14.68;68.59;103290.31;4901519;28;102108;-50
2021/11/10 03:08:00;;;;;;;4.18;3.13;;;;;;;14.67;68.65;103294.97;4892319;28;102277;-50
2021/11/10 03:10:27;;;;;;;4.03;3.17;;;;;;;14.68;68.50;103295.78;4899789;28;103939;-50
2021/11/10 03:12:55;;;;;;;3.45;3.15;;;;;;;14.68;68.52;103295.78;4902259;28;102181;-50
2021/11/10 03:15:21;;;;;;;3.40;3.10;;;;;;;14.66;68.44;103291.41;4902656;28;102084;-50
2021/11/10 03:17:47;;;;;;;4.00;3.28;;;;;;;14.68;68.63;103302.13;4902569;28;103679;-50
2021/11/10 03:20:14;;;;;;;4.03;3.45;;;;;;;14.66;68.65;103296.88;4904725;28;103921;-50
2021/11/10 03:22:42;;;;;;;3.72;3.13;;;;;;;14.68;68.48;103301.28;4884693;28;102162;-50
2021/11/10 03:25:09;;;;;;;5.43;3.42;;;;;;;14.66;68.70;103305.09;4908171;28;102040;-50
2021/11/10 03:27:35;;;;;;;3.15;2.80;;;;;;;14.67;68.47;103300.44;4898431;28;102159;-50
2021/11/10 03:30:06;;;;;;;3.20;2.90;;;;;;;14.68;68.35;103306.75;4900025;28;103933;-50
2021/11/10 03:32:34;;;;;;;4.10;2.95;;;;;;;14.68;68.56;103304.00;4895935;28;102427;-50
2021/11/10 03:35:00;;;;;;;3.20;2.90;;;;;;;14.66;68.48;103299.63;4899078;28;102371;-50
2021/11/10 03:37:27;;;;;;;4.50;3.55;;;;;;;14.66;68.73;103305.09;4899995;28;102212;-50
2021/11/10 03:39:54;;;;;;;3.47;2.83;;;;;;;14.66;68.35;103299.63;4911346;28;103861;-50
2021/11/10 03:42:21;;;;;;;3.20;2.90;;;;;;;14.67;68.58;103305.94;4902781;28;102554;-50
2021/11/10 03:44:47;;;;;;;3.60;2.72;;;;;;;14.67;68.58;103305.94;4901566;28;102306;-50
2021/11/10 03:47:15;;;;;;;3.60;3.30;;;;;;;14.68;68.68;103304.88;4905378;28;105174;-49
2021/11/10 03:49:42;;;;;;;4.05;3.20;;;;;;;14.66;68.47;103302.34;4901536;28;103885;-50
2021/11/10 03:52:08;;;;;;;3.17;2.83;;;;;;;14.67;68.85;103303.19;4900595;28;102975;-50
2021/11/10 03:54:34;;;;;;;3.92;3.10;;;;;;;14.67;68.65;103308.66;4912969;28;102710;-50
2021/11/10 03:57:01;;;;;;;3.20;2.72;;;;;;;14.67;68.72;103305.94;4907190;28;102111;-50
2021/11/10 03:59:27;;;;;;;3.88;3.30;;;;;;;14.66;68.30;103310.56;4905816;28;102750;-50
2021/11/10 04:01:54;;;;;;;4.10;3.05;;;;;;;14.67;68.71;103311.41;4909049;28;102231;-50
2021/11/10 04:04:22;;;;;;;4.10;3.40;;;;;;;14.66;68.60;103310.56;4889800;28;102084;-49
2021/11/10 04:06:48;;;;;;;3.58;3.13;;;;;;;14.68;68.50;103317.72;4901811;28;102263;-50
2021/11/10 04:09:15;;;;;;;3.38;2.95;;;;;;;14.67;68.74;103316.88;4899865;28;104058;-50
2021/11/10 04:11:42;;;;;;;3.85;3.30;;;;;;;14.68;68.80;103323.19;4897828;28;102456;-50
2021/11/10 04:14:09;;;;;;;3.33;2.92;;;;;;;14.66;68.73;103324.28;4899426;28;102204;-50
2021/11/10 04:16:40;;;;;;;3.63;2.95;;;;;;;14.66;68.39;103327.03;4908384;28;102615;-50
2021/11/10 04:19:06;;;;;;;3.55;3.00;;;;;;;14.66;68.58;103327.03;4891293;28;103879;-50
2021/11/10 04:21:42;;;;;;;3.70;3.30;;;;;;;14.67;68.71;103319.63;4897013;28;102574;-50
2021/11/10 04:24:09;;;;;;;2.67;2.47;;;;;;;14.68;68.91;103317.72;4897129;28;102112;-50
2021/11/10 04:26:38;;;;;;;3.10;2.80;;;;;;;14.67;68.96;103319.63;4900801;28;102221;-50
2021/11/10 04:29:06;;;;;;;3.13;2.83;;;;;;;14.66;68.36;103324.28;4906966;28;102773;-50
2021/11/10 04:31:33;;;;;;;3.37;2.93;;;;;;;14.66;68.51;103321.53;4899761;28;102721;-50
2021/11/10 04:34:01;;;;;;;3.05;2.78;;;;;;;14.66;68.67;103335.25;4892388;28;102398;-50
2021/11/10 04:36:31;;;;;;;3.17;2.88;;;;;;;14.66;68.77;103324.28;4905762;28;102215;-50
2021/11/10 04:38:59;;;;;;;3.50;3.00;;;;;;;14.66;68.49;103335.25;4902521;28;103892;-50
2021/11/10 04:41:26;;;;;;;3.88;2.75;;;;;;;14.65;68.61;103341.81;4909173;28;104484;-50
2021/11/10 04:43:53;;;;;;;4.95;2.78;;;;;;;14.64;68.58;103337.41;4905029;28;102222;-51
2021/11/10 04:46:31;;;;;;;5.53;3.28;;;;;;;14.65;68.26;103336.31;4904917;28;102309;-51
2021/11/10 04:48:57;;;;;;;3.33;2.92;;;;;;;14.64;68.63;103334.66;4901444;28;104004;-50
2021/11/10 04:51:26;;;;;;;3.60;3.10;;;;;;;14.64;68.66;103337.41;4904682;28;102073;-51
2021/11/10 04:53:53;;;;;;;3.63;3.30;;;;;;;14.64;68.42;103334.66;4896623;28;102267;-51
2021/11/10 04:56:20;;;;;;;3.67;2.75;;;;;;;14.64;68.56;103339.28;4902922;28;102180;-51
2021/11/10 04:58:47;;;;;;;3.15;2.88;;;;;;;14.64;68.44;103339.28;4906375;28;104249;-50
2021/11/10 05:01:25;;;;;;;3.20;2.90;;;;;;;14.63;68.47;103343.94;4906888;28;102043;-50
2021/11/10 05:03:52;;;;;;;3.13;2.80;;;;;;;14.63;68.69;103349.41;4901054;28;102154;-50
2021/11/10 05:06:20;;;;;;;4.13;3.05;;;;;;;14.63;68.78;103349.41;4905039;28;102183;-50
2021/11/10 05:08:46;;;;;;;2.95;2.70;;;;;;;14.63;68.51;103357.63;4909099;28;103978;-50
2021/11/10 05:11:14;;;;;;;3.30;2.60;;;;;;;14.62;68.35;103358.72;4908126;28;101992;-50
2021/11/10 05:13:42;;;;;;;3.88;2.83;;;;;;;14.62;68.75;103363.38;4911302;28;102409;-50
2021/11/10 05:16:08;;;;;;;3.25;2.80;;;;;;;14.62;68.75;103372.41;4902396;28;104237;-50
2021/11/10 05:18:35;;;;;;;3.20;2.90;;;;;;;14.62;68.79;103369.69;4911555;28;105613;-50
2021/11/10 05:21:01;;;;;;;3.03;2.72;;;;;;;14.62;68.27;103377.06;4891670;28;102169;-50
2021/11/10 05:23:27;;;;;;;2.90;2.67;;;;;;;14.60;68.76;103377.28;4904394;28;102189;-50
2021/11/10 05:25:54;;;;;;;2.78;2.58;;;;;;;14.61;68.49;103370.75;4901133;28;102363;-50
2021/11/10 05:28:21;;;;;;;3.38;2.67;;;;;;;14.61;68.42;103386.38;4907475;28;103885;-50
2021/11/10 05:30:49;;;;;;;3.00;2.75;;;;;;;14.60;68.84;103382.75;4906754;28;102142;-50
2021/11/10 05:33:15;;;;;;;3.40;3.10;;;;;;;14.60;68.46;103371.81;4906354;28;102097;-50
2021/11/10 05:35:42;;;;;;;4.57;3.10;;;;;;;14.60;68.40;103381.94;4909425;28;102178;-50
2021/11/10 05:38:08;;;;;;;2.85;2.55;;;;;;;14.59;68.43;103389.31;4902108;28;104292;-50
2021/11/10 05:40:36;;;;;;;2.88;2.58;;;;;;;14.58;68.49;103395.88;4908501;28;102078;-50
2021/11/10 05:43:03;;;;;;;2.70;2.50;;;;;;;14.59;68.66;103403.03;4903043;28;102296;-50
2021/11/10 05:45:29;;;;;;;3.00;2.70;;;;;;;14.59;68.37;103403.03;4886515;28;102728;-50
2021/11/10 05:47:57;;;;;;;2.72;2.53;;;;;;;14.59;68.63;103394.81;4878561;28;106870;-50
2021/11/10 05:50:23;;;;;;;3.10;2.80;;;;;;;14.58;68.38;103398.63;4878715;28;102144;-50
2021/11/10 05:52:50;;;;;;;3.45;3.15;;;;;;;14.59;68.57;103400.28;4876817;28;102142;-50
2021/11/10 05:55:17;;;;;;;2.58;2.38;;;;;;;14.59;68.53;103405.78;4880782;28;102791;-50
2021/11/10 05:57:43;;;;;;;2.67;2.47;;;;;;;14.59;68.68;103403.03;4884983;28;104294;-50
2021/11/10 06:00:12;;;;;;;2.92;2.63;;;;;;;14.58;68.46;103406.84;4875451;28;102769;-50
2021/11/10 06:02:40;;;;;;;2.83;2.47;;;;;;;14.59;68.72;103408.50;4878608;28;102318;-50
2021/11/10 06:05:10;;;;;;;2.58;2.38;;;;;;;14.58;68.07;103395.88;4882445;28;102212;-50
2021/11/10 06:07:36;;;;;;;2.80;2.50;;;;;;;14.58;68.74;103398.63;4875635;28;103769;-50
2021/11/10 06:10:05;;;;;;;2.97;2.78;;;;;;;14.58;68.72;103401.38;4878466;28;103462;-50
2021/11/10 06:12:33;;;;;;;2.80;2.60;;;;;;;14.58;68.49;103406.84;4879850;28;102515;-50
2021/11/10 06:15:06;;;;;;;2.83;2.63;;;;;;;14.58;68.61;103423.28;4869855;28;102448;-51
2021/11/10 06:17:32;;;;;;;2.72;2.47;;;;;;;14.58;68.38;103428.78;4880812;28;103739;-50
2021/11/10 06:20:01;;;;;;;2.60;2.40;;;;;;;14.58;68.18;103428.78;4879863;28;102452;-50
2021/11/10 06:22:30;;;;;;;3.25;2.47;;;;;;;14.58;68.52;103422.47;4876492;28;102617;-51
2021/11/10 06:24:56;;;;;;;2.07;1.90;;;;;;;14.58;68.50;103423.28;4931350;23;102937;-50
2021/11/10 06:27:23;;;;;;;3.38;2.30;;;;;;;14.57;68.56;103429.84;4934110;28;104089;-50
2021/11/10 06:29:49;;;;;;;2.70;2.35;;;;;;;14.58;68.14;103423.28;4933507;28;103551;-50
2021/11/10 06:32:16;;;;;;;2.60;2.40;;;;;;;14.57;68.39;103421.63;4942021;28;102591;-50
2021/11/10 06:34:42;;;;;;;2.35;2.15;;;;;;;14.58;68.30;103434.25;4940169;28;102241;-52
2021/11/10 06:37:09;;;;;;;2.70;2.30;;;;;;;14.58;68.42;103445.22;4934401;28;103930;-51
2021/11/10 06:39:37;;;;;;;2.58;2.28;;;;;;;14.59;68.08;103446.88;4920153;28;102232;-50
2021/11/10 06:42:04;;;;;;;2.27;2.07;;;;;;;14.59;68.40;103446.88;4921754;28;102399;-50
2021/11/10 06:44:32;;;;;;;2.63;2.42;;;;;;;14.59;68.18;103444.13;4926901;28;102169;-50
2021/11/10 06:46:59;;;;;;;2.50;2.30;;;;;;;14.58;68.15;103450.69;4921281;28;104103;-50
2021/11/10 06:49:26;;;;;;;2.47;2.28;;;;;;;14.59;68.55;103452.34;4912411;28;102457;-50
2021/11/10 06:51:53;;;;;;;3.28;2.35;;;;;;;14.59;68.26;103451.53;4919798;28;102162;-50
2021/11/10 06:54:19;;;;;;;2.53;2.33;;;;;;;14.58;68.18;103464.41;4920650;28;102705;-50
2021/11/10 06:56:48;;;;;;;3.92;2.58;;;;;;;14.59;68.28;103466.06;4918706;28;104113;-50
2021/11/10 06:59:15;;;;;;;2.70;2.50;;;;;;;14.58;68.20;103475.34;4914270;28;102467;-50
2021/11/10 07:01:42;;;;;;;2.40;2.20;;;;;;;14.59;68.37;103479.75;4910761;28;102313;-50
2021/11/10 07:04:11;;;;;;;3.45;2.63;;;;;;;14.59;68.39;103493.47;4918969;28;102375;-50
2021/11/10 07:06:39;;;;;;;2.78;2.42;;;;;;;14.59;68.27;103485.25;4910857;28;104990;-50
2021/11/10 07:09:07;;;;;;;3.85;2.50;;;;;;;14.60;68.15;103475.94;4918751;28;102249;-50
2021/11/10 07:11:34;;;;;;;3.53;2.63;;;;;;;14.58;68.42;103475.34;4909264;28;102137;-50
2021/11/10 07:14:03;;;;;;;2.83;2.63;;;;;;;14.60;68.06;103472.38;4918140;28;102124;-50
2021/11/10 07:16:29;;;;;;;;;;;;;;;14.58;68.33;103472.63;4909574;28;104299;-50
2021/11/10 07:18:56;;;;;;;3.95;2.80;;;;;;;14.59;68.27;103478.94;4916030;28;102539;-50
2021/11/10 07:21:22;;;;;;;2.97;2.60;;;;;;;14.60;68.34;103475.13;4919047;28;102308;-50
2021/11/10 07:23:49;;;;;;;3.17;2.60;;;;;;;14.59;68.37;103463.31;4904891;28;102363;-50
2021/11/10 07:26:16;;;;;;;3.17;2.60;;;;;;;14.60;68.10;103464.97;4918389;28;103924;-50
2021/11/10 07:28:42;;;;;;;2.80;2.60;;;;;;;14.59;68.35;103462.50;4916130;28;102445;-50
2021/11/10 07:31:10;;;;;;;2.55;2.35;;;;;;;14.61;68.05;103460.38;4917226;28;102145;-50
2021/11/10 07:33:37;;;;;;;2.92;2.55;;;;;;;14.60;68.44;103459.50;4921001;28;102232;-50
2021/11/10 07:36:04;;;;;;;2.83;2.58;;;;;;;14.60;68.07;103469.63;4917262;28;104119;-50
2021/11/10 07:38:31;;;;;;;2.97;2.67;;;;;;;14.60;68.16;103464.97;4921676;28;102174;-50
2021/11/10 07:40:58;;;;;;;3.53;3.10;;;;;;;14.60;68.30;103459.50;4918205;28;102073;-50
2021/11/10 07:43:25;;;;;;;3.42;3.13;;;;;;;14.59;68.01;103457.84;4919057;28;102269;-50
2021/11/10 07:45:54;;;;;;;3.10;2.80;;;;;;;14.60;68.59;103448.53;4915423;28;103935;-50
2021/11/10 07:48:22;;;;;;;3.28;2.85;;;;;;;14.59;68.12;103457.00;4923397;28;102147;-50
2021/11/10 07:50:49;;;;;;;3.33;2.83;;;;;;;14.58;68.38;103456.19;4917404;28;103238;-50
2021/11/10 07:53:16;;;;;;;2.88;2.65;;;;;;;14.59;68.11;103463.31;4918550;28;102176;-50
2021/11/10 07:55:42;;;;;;;2.78;2.58;;;;;;;14.60;68.03;103464.97;4921439;28;103848;-50
2021/11/10 07:58:09;;;;;;;3.15;2.85;;;;;;;14.59;68.30;103459.75;4914855;28;102390;-50
2021/11/10 08:00:36;;;;;;;2.50;2.30;;;;;;;14.59;68.38;103446.88;4916179;28;102124;-50
2021/11/10 08:03:03;;;;;;;3.00;2.70;;;;;;;14.59;68.36;103446.88;4919272;28;102459;-50
2021/11/10 08:05:31;;;;;;;2.88;2.67;;;;;;;14.58;68.38;103439.72;4911934;28;106005;-50
2021/11/10 08:07:59;;;;;;;2.83;2.58;;;;;;;14.59;68.33;103426.88;4913491;28;102112;-50
2021/11/10 08:10:25;;;;;;;4.22;2.85;;;;;;;14.59;68.38;103441.41;4912860;28;102256;-51
2021/11/10 08:12:52;;;;;;;2.85;2.65;;;;;;;14.58;68.43;103428.78;4928554;28;102266;-50
2021/11/10 08:15:19;;;;;;;3.47;2.70;;;;;;;14.58;68.05;103444.38;4914941;28;103942;-49
2021/11/10 08:17:45;;;;;;;5.50;3.30;;;;;;;14.59;68.00;103440.56;4912318;28;102410;-50
2021/11/10 08:20:15;;;;;;;4.82;2.45;;;;;;;14.58;68.16;103423.28;4912117;28;102502;-50
2021/11/10 08:22:45;;;;;;;2.92;2.67;;;;;;;14.58;68.21;103428.78;4912757;28;102549;-50
2021/11/10 08:25:13;;;;;;;2.95;2.65;;;;;;;14.57;67.91;103449.03;4909596;28;104062;-50
2021/11/10 08:27:40;;;;;;;3.45;2.60;;;;;;;14.58;68.06;103447.94;4912764;28;102197;-50
2021/11/10 08:30:10;;;;;;;5.65;2.63;;;;;;;14.57;68.15;103449.03;4914064;28;102892;-50
2021/11/10 08:32:36;;;;;;;;;;;;;;;14.57;68.07;103446.28;4911969;28;102480;-50
2021/11/10 08:35:03;;;;;;;3.05;2.78;;;;;;;14.57;68.10;103443.56;4914509;28;103730;-50
2021/11/10 08:37:31;;;;;;;6.32;2.78;;;;;;;14.58;67.77;103456.19;4907017;28;102205;-50
2021/11/10 08:39:59;;;;;;;3.00;2.70;;;;;;;14.58;68.05;103449.88;4905373;28;103469;-50
2021/11/10 08:42:33;;;;;;;5.57;2.73;;;;;;;14.57;67.88;103451.78;4909401;28;102427;-50
2021/11/10 08:45:00;;;;;;;4.78;3.20;;;;;;;14.58;67.77;103456.19;4914640;28;104309;-50
2021/11/10 08:47:27;;;;;;;4.85;2.80;;;;;;;14.58;67.92;103464.41;4922579;28;103028;-50
2021/11/10 08:49:54;;;;;;;7.20;2.83;;;;;;;14.57;68.05;103461.88;4904812;28;102155;-49
2021/11/10 08:52:20;;;;;;;4.97;2.58;;;;;;;14.58;67.78;103464.41;4916972;28;102248;-50
2021/11/10 08:54:47;;;;;;;3.30;3.00;;;;;;;14.59;68.07;103466.06;4908577;28;104195;-50
2021/11/10 08:57:15;;;;;;;3.42;2.70;;;;;;;14.58;68.18;103461.66;4917368;28;102556;-50
2021/11/10 08:59:41;;;;;;;6.60;3.25;;;;;;;14.59;68.05;103466.06;4910711;28;102459;-50
2021/11/10 09:02:08;;;;;;;5.85;3.20;;;;;;;14.58;68.03;103450.69;4920448;28;102954;-50
2021/11/10 09:04:35;;;;;;;9.55;3.22;;;;;;;14.59;67.73;103463.31;4917133;28;103924;-50
2021/11/10 09:07:01;;;;;;;5.22;2.72;;;;;;;14.59;68.10;103460.59;4921356;28;102372;-50
2021/11/10 09:09:28;;;;;;;5.53;3.03;;;;;;;14.59;68.03;103452.34;4911363;28;102200;-50
2021/11/10 09:11:55;;;;;;;5.45;3.00;;;;;;;14.61;68.11;103452.16;4921333;28;102582;-51
2021/11/10 09:14:25;;;;;;;6.88;3.28;;;;;;;14.60;67.81;103464.16;4906162;28;103923;-50
2021/11/10 09:16:52;;;;;;;6.30;3.20;;;;;;;14.61;68.10;103452.16;4911469;28;102192;-50
2021/11/10 09:19:19;;;;;;;3.47;2.85;;;;;;;14.60;67.70;103459.50;4907269;28;102597;-50
2021/11/10 09:21:46;;;;;;;3.17;2.88;;;;;;;14.60;67.86;103454.03;4914860;28;103532;-50
2021/11/10 09:24:14;;;;;;;5.50;2.95;;;;;;;14.61;68.10;103455.72;4916947;28;104078;-50
2021/11/10 09:26:41;;;;;;;4.35;2.95;;;;;;;14.61;67.53;103454.88;4909702;28;103231;-50
2021/11/10 09:29:08;;;;;;;5.80;2.67;;;;;;;14.61;67.64;103455.72;4918814;28;102499;-50
2021/11/10 09:31:37;;;;;;;4.80;2.70;;;;;;;14.61;67.88;103450.22;4921477;28;102856;-50
2021/11/10 09:34:06;;;;;;;4.32;2.70;;;;;;;14.61;67.63;103432.97;4916142;28;103881;-50
2021/11/10 09:36:33;;;;;;;4.65;3.10;;;;;;;14.61;68.04;103428.31;4916744;28;102151;-50
2021/11/10 09:39:00;;;;;;;4.47;3.13;;;;;;;14.63;67.79;103433.53;4915504;28;102453;-50
2021/11/10 09:41:26;;;;;;;5.72;3.15;;;;;;;14.62;67.85;103429.16;4916322;28;102599;-50
2021/11/10 09:43:53;;;;;;;5.28;2.78;;;;;;;14.62;68.00;103424.50;4915071;28;103842;-50
2021/11/10 09:46:20;;;;;;;3.58;2.60;;;;;;;14.62;68.26;103408.03;4912334;28;102194;-50
2021/11/10 09:48:49;;;;;;;3.45;2.80;;;;;;;14.62;67.79;103410.78;4899719;28;102160;-50
2021/11/10 09:51:15;;;;;;;4.07;2.72;;;;;;;14.62;68.06;103412.69;4922854;28;102211;-50
2021/11/10 09:53:41;;;;;;;3.90;3.00;;;;;;;14.62;67.97;103408.03;4918157;28;104201;-50
2021/11/10 09:56:08;;;;;;;3.90;3.00;;;;;;;14.63;68.00;103398.75;4918749;28;103488;-50
2021/11/10 09:58:36;;;;;;;3.92;3.30;;;;;;;14.62;68.07;103408.03;4911190;28;102676;-50
2021/11/10 10:01:09;;;;;;;3.20;2.90;;;;;;;14.63;68.20;103408.88;4919732;28;102322;-50
2021/11/10 10:03:38;;;;;;;3.63;3.13;;;;;;;14.63;67.91;103415.19;4918362;28;103989;-50
2021/11/10 10:06:06;;;;;;;3.00;2.72;;;;;;;14.63;67.76;103425.31;4914417;28;102149;-50
2021/11/10 10:08:33;;;;;;;4.07;3.25;;;;;;;14.62;67.73;103419.00;4923373;28;103691;-50
2021/11/10 10:11:00;;;;;;;5.13;3.25;;;;;;;14.62;67.71;103409.97;4916984;28;102976;-50
2021/11/10 10:13:27;;;;;;;3.55;2.85;;;;;;;14.62;68.15;103413.53;4916582;28;103912;-50
2021/11/10 10:15:53;;;;;;;3.92;2.83;;;;;;;14.63;67.49;103414.34;4904234;28;102370;-50
2021/11/10 10:18:22;;;;;;;3.72;3.00;;;;;;;14.63;67.72;103409.72;4916234;28;102216;-50
2021/11/10 10:20:54;;;;;;;3.45;2.67;;;;;;;14.62;67.99;103397.09;4918186;28;102330;-50
2021/11/10 10:23:26;;;;;;;4.03;3.10;;;;;;;14.63;67.83;103403.41;4910302;28;103801;-50
2021/11/10 10:25:56;;;;;;;6.68;2.90;;;;;;;14.63;67.72;103397.91;4878143;28;102302;-50
2021/11/10 10:28:27;;;;;;;3.90;2.53;;;;;;;14.61;67.79;103397.34;4879504;28;102356;-50
2021/11/10 10:30:56;;;;;;;4.75;2.88;;;;;;;14.62;67.66;103399.81;4885300;28;102634;-50
2021/11/10 10:33:25;;;;;;;7.53;2.88;;;;;;;14.62;67.83;103397.09;4879624;28;103907;-50
2021/11/10 10:35:54;;;;;;;4.28;2.83;;;;;;;14.62;67.99;103397.09;4881595;28;102097;-50
2021/11/10 10:38:21;;;;;;;;;;;;;;;14.62;68.08;103388.88;4878758;28;102011;-50
2021/11/10 10:40:52;;;;;;;3.80;2.70;;;;;;;14.63;67.58;103393.28;4886050;28;102154;-50
2021/11/10 10:43:20;;;;;;;4.28;3.83;;;;;;;14.63;67.65;103389.69;4879034;28;103942;-50
2021/11/10 10:45:48;;;;;;;4.57;2.58;;;;;;;14.62;67.86;103386.13;4879849;28;102309;-51
2021/11/10 10:48:16;;;;;;;3.28;2.70;;;;;;;14.62;67.97;103374.31;4884517;28;102373;-50
2021/11/10 10:50:49;;;;;;;3.83;3.00;;;;;;;14.61;67.97;103368.00;4881477;28;102511;-50
2021/11/10 10:53:18;;;;;;;3.30;2.90;;;;;;;14.62;67.76;103369.69;4879120;28;103742;-50
2021/11/10 10:55:49;;;;;;;4.57;3.22;;;;;;;14.62;67.82;103368.84;4880921;28;102410;-50
2021/11/10 10:58:34;;;;;;;5.65;2.58;;;;;;;14.61;67.97;103362.53;4879291;28;102115;-50
2021/11/10 11:01:19;;;;;;;3.55;2.97;;;;;;;14.62;68.07;103363.38;4880756;28;102444;-51
2021/11/10 11:03:49;;;;;;;3.13;2.83;;;;;;;14.61;67.67;103351.56;4879099;28;103987;-50
2021/11/10 11:06:23;;;;;;;2.95;2.67;;;;;;;14.62;67.56;103352.41;4885009;28;102132;-50
2021/11/10 11:08:51;;;;;;;2.95;2.70;;;;;;;14.61;67.72;103348.84;4876670;28;102087;-50
2021/11/10 11:11:25;;;;;;;3.30;2.92;;;;;;;14.60;67.72;103358.09;4891672;28;102137;-51
2021/11/10 11:13:58;;;;;;;3.08;2.80;;;;;;;14.60;67.53;103355.34;4881894;28;103908;-50
2021/11/10 11:16:35;;;;;;;3.42;2.95;;;;;;;14.60;67.76;103360.84;4889452;28;102191;-50
2021/11/10 11:19:16;;;;;;;3.40;3.10;;;;;;;14.61;67.79;103354.31;4889790;28;102403;-50
2021/11/10 11:21:51;;;;;;;3.90;2.80;;;;;;;14.61;67.82;103351.56;4885067;28;102227;-50